createdAt,value
2023-02-15T00:01:55.108Z,27.92
2023-02-15T00:04:50.205Z,27.95
2023-02-15T00:07:23.935Z,28.00
2023-02-15T00:09:57.624Z,28.01
2023-02-15T00:12:28.138Z,27.99
2023-02-15T00:14:59.052Z,28.08
2023-02-15T00:17:30.839Z,28.10
2023-02-15T00:20:01.758Z,28.08
2023-02-15T00:22:32.633Z,28.09
2023-02-15T00:25:03.427Z,28.07
2023-02-15T00:27:36.615Z,28.23
2023-02-15T00:30:08.566Z,28.34
2023-02-15T00:32:39.199Z,28.47
2023-02-15T00:35:11.166Z,28.53
2023-02-15T00:37:42.105Z,28.62
2023-02-15T00:40:12.714Z,28.63
2023-02-15T00:42:43.668Z,28.66
2023-02-15T00:45:16.543Z,28.68
2023-02-15T00:47:49.349Z,28.77
2023-02-15T00:50:21.847Z,28.82
2023-02-15T00:52:54.737Z,28.87
2023-02-15T00:55:25.843Z,28.92
2023-02-15T00:57:56.168Z,28.96
2023-02-15T01:00:27.019Z,29.06
2023-02-15T01:02:57.341Z,29.09
2023-02-15T01:05:28.512Z,29.11
2023-02-15T01:07:59.986Z,29.15
2023-02-15T01:10:30.856Z,29.18
2023-02-15T01:13:01.726Z,29.23
2023-02-15T01:15:33.265Z,29.30
2023-02-15T01:18:06.847Z,29.40
2023-02-15T01:20:40.925Z,29.45
2023-02-15T01:23:12.121Z,29.52
2023-02-15T01:25:43.967Z,29.53
2023-02-15T01:28:14.618Z,29.57
2023-02-15T01:30:45.407Z,29.60
2023-02-15T01:33:19.526Z,29.63
2023-02-15T01:35:50.655Z,29.68
2023-02-15T01:38:21.896Z,29.73
2023-02-15T01:41:16.033Z,29.76
2023-02-15T01:44:01.468Z,29.76
2023-02-15T01:46:42.426Z,29.80
2023-02-15T01:49:19.104Z,29.81
2023-02-15T01:51:54.385Z,29.78
2023-02-15T01:54:33.183Z,29.82
2023-02-15T01:57:07.341Z,29.87
2023-02-15T01:59:39.379Z,29.88
2023-02-15T02:02:14.867Z,29.91
2023-02-15T02:05:00.230Z,29.91
2023-02-15T02:07:34.502Z,29.90
2023-02-15T02:10:06.775Z,29.90
2023-02-15T02:12:41.856Z,29.94
2023-02-15T02:15:44.798Z,29.96
2023-02-15T02:18:37.446Z,29.94
2023-02-15T02:21:33.958Z,29.98
2023-02-15T02:24:31.486Z,30.00
2023-02-15T02:27:10.782Z,29.98
2023-02-15T02:29:47.114Z,29.99
2023-02-15T02:33:10.357Z,30.11
2023-02-15T02:35:53.041Z,30.07
2023-02-15T02:38:40.354Z,30.08
2023-02-15T02:42:21.475Z,30.15
2023-02-15T02:45:11.217Z,30.18
2023-02-15T02:47:51.908Z,30.23
2023-02-15T02:50:30.084Z,30.28
2023-02-15T02:53:01.987Z,30.35
2023-02-15T02:55:38.533Z,30.35
2023-02-15T02:58:22.896Z,30.33
2023-02-15T03:01:00.685Z,30.47
2023-02-15T03:03:39.395Z,30.54
2023-02-15T03:06:21.917Z,30.60
2023-02-15T03:09:10.025Z,30.64
2023-02-15T03:11:40.524Z,30.74
2023-02-15T03:14:12.332Z,30.75
2023-02-15T03:16:44.297Z,30.74
2023-02-15T03:19:25.006Z,30.70
2023-02-15T03:22:05.446Z,30.79
2023-02-15T03:24:54.487Z,30.80
2023-02-15T03:27:29.215Z,30.82
2023-02-15T03:30:04.270Z,30.83
2023-02-15T03:32:36.409Z,30.85
2023-02-15T03:35:07.715Z,30.81
2023-02-15T03:37:44.065Z,30.83
2023-02-15T03:40:49.155Z,30.88
2023-02-15T03:43:42.988Z,30.87
2023-02-15T03:46:35.308Z,30.91
2023-02-15T03:49:13.799Z,31.00
2023-02-15T03:51:47.610Z,31.06
2023-02-15T03:54:41.839Z,31.12
2023-02-15T03:57:53.073Z,31.24
2023-02-15T04:00:44.220Z,31.25
2023-02-15T04:03:29.999Z,31.37
2023-02-15T04:06:10.140Z,31.46
2023-02-15T04:08:59.474Z,31.44
2023-02-15T04:11:30.061Z,31.55
2023-02-15T04:14:21.197Z,31.61
2023-02-15T04:16:52.642Z,31.73
2023-02-15T04:19:41.886Z,31.82
2023-02-15T04:22:31.475Z,31.79
2023-02-15T04:25:13.994Z,31.78
2023-02-15T04:27:47.234Z,31.82
2023-02-15T04:30:20.182Z,31.85
2023-02-15T04:32:51.389Z,31.87
2023-02-15T04:35:22.354Z,31.89
2023-02-15T04:37:53.530Z,31.78
2023-02-15T04:40:24.183Z,31.89
2023-02-15T04:42:54.979Z,31.90
2023-02-15T04:45:29.776Z,31.95
2023-02-15T04:48:00.328Z,31.99
2023-02-15T04:50:30.672Z,32.05
2023-02-15T04:53:01.358Z,32.03
2023-02-15T04:55:31.891Z,32.14
2023-02-15T04:58:02.725Z,32.28
2023-02-15T05:00:34.252Z,32.35
2023-02-15T05:03:05.380Z,32.43
2023-02-15T05:05:37.910Z,32.55
2023-02-15T05:08:08.881Z,32.63
2023-02-15T05:10:39.935Z,32.74
2023-02-15T05:13:11.440Z,32.78
2023-02-15T05:15:54.178Z,32.83
2023-02-15T05:18:25.082Z,32.94
2023-02-15T05:20:55.869Z,33.05
2023-02-15T05:23:26.554Z,33.06
2023-02-15T05:26:15.491Z,33.11
2023-02-15T05:28:46.036Z,33.16
2023-02-15T05:31:21.820Z,33.23
2023-02-15T05:33:52.972Z,33.19
2023-02-15T05:36:23.958Z,33.16
2023-02-15T05:38:55.144Z,33.26
2023-02-15T05:41:27.575Z,33.33
2023-02-15T05:43:58.909Z,33.43
2023-02-15T05:46:29.671Z,33.38
2023-02-15T05:49:00.661Z,33.52
2023-02-15T05:51:31.029Z,33.57
2023-02-15T05:54:01.646Z,33.63
2023-02-15T05:56:32.565Z,33.83
2023-02-15T05:59:04.700Z,33.93
2023-02-15T06:01:35.482Z,34.01
2023-02-15T06:04:06.052Z,33.93
2023-02-15T06:06:36.856Z,33.98
2023-02-15T06:09:07.993Z,34.11
2023-02-15T06:11:39.230Z,34.13
2023-02-15T06:14:10.503Z,34.08
2023-02-15T06:16:42.163Z,33.95
2023-02-15T06:19:13.056Z,33.87
2023-02-15T06:21:43.950Z,33.95
2023-02-15T06:24:16.452Z,33.94
2023-02-15T06:26:47.518Z,33.95
2023-02-15T06:29:18.276Z,33.96
2023-02-15T06:31:53.275Z,33.86
2023-02-15T06:34:24.164Z,33.78
2023-02-15T06:36:55.409Z,33.77
2023-02-15T06:39:26.265Z,33.71
2023-02-15T06:41:56.809Z,33.63
2023-02-15T06:44:27.708Z,33.52
2023-02-15T06:46:58.625Z,33.40
2023-02-15T06:49:29.166Z,33.34
2023-02-15T06:52:08.369Z,33.33
2023-02-15T06:54:39.636Z,33.21
2023-02-15T06:57:11.562Z,33.15
2023-02-15T06:59:42.319Z,33.10
2023-02-15T07:02:16.217Z,33.00
2023-02-15T07:04:47.322Z,32.86
2023-02-15T07:07:18.474Z,32.81
2023-02-15T07:09:49.262Z,32.84
2023-02-15T07:12:39.050Z,32.78
2023-02-15T07:15:11.126Z,32.77
2023-02-15T07:17:42.563Z,32.77
2023-02-15T07:20:18.654Z,32.73
2023-02-15T07:22:50.049Z,32.72
2023-02-15T07:25:20.645Z,32.70
2023-02-15T07:27:58.312Z,32.60
2023-02-15T07:30:29.579Z,32.58
2023-02-15T07:33:19.115Z,32.57
2023-02-15T07:35:56.075Z,32.58
2023-02-15T07:38:28.772Z,32.52
2023-02-15T07:41:04.079Z,32.48
2023-02-15T07:43:37.128Z,32.50
2023-02-15T07:46:10.022Z,32.50
2023-02-15T07:48:42.497Z,32.48
2023-02-15T07:51:14.562Z,32.46
2023-02-15T07:53:45.632Z,32.40
2023-02-15T07:56:17.875Z,32.38
2023-02-15T07:58:56.591Z,32.39
2023-02-15T08:01:33.080Z,32.36
2023-02-15T08:04:13.100Z,32.38
2023-02-15T08:06:46.390Z,32.33
2023-02-15T08:09:17.660Z,32.30
2023-02-15T08:11:49.573Z,32.29
2023-02-15T08:14:22.809Z,32.28
2023-02-15T08:16:58.733Z,32.27
2023-02-15T08:19:32.361Z,32.24
2023-02-15T08:22:06.862Z,32.25
2023-02-15T08:24:39.316Z,32.19
2023-02-15T08:27:12.945Z,32.22
2023-02-15T08:29:44.172Z,32.19
2023-02-15T08:32:15.640Z,32.13
2023-02-15T08:34:47.017Z,32.11
2023-02-15T08:37:17.777Z,32.13
2023-02-15T08:39:49.008Z,32.14
2023-02-15T08:42:20.107Z,32.13
2023-02-15T08:44:52.899Z,32.08
2023-02-15T08:47:23.627Z,32.01
2023-02-15T08:49:54.731Z,32.00
2023-02-15T08:52:28.855Z,31.99
2023-02-15T08:55:00.194Z,31.96
2023-02-15T08:57:32.316Z,31.98
2023-02-15T09:00:06.532Z,31.88
2023-02-15T09:02:38.441Z,31.91
2023-02-15T09:05:21.626Z,31.94
2023-02-15T09:07:52.522Z,31.89
2023-02-15T09:10:23.162Z,31.88
2023-02-15T09:12:54.468Z,31.87
2023-02-15T09:15:25.556Z,31.81
2023-02-15T09:17:56.348Z,31.76
2023-02-15T09:20:27.483Z,31.77
2023-02-15T09:22:59.881Z,31.79
2023-02-15T09:25:31.004Z,31.69
2023-02-15T09:28:02.392Z,31.65
2023-02-15T09:30:33.228Z,31.63
2023-02-15T09:33:03.656Z,31.58
2023-02-15T09:35:33.974Z,31.51
2023-02-15T09:38:05.234Z,31.48
2023-02-15T09:40:42.866Z,31.39
2023-02-15T09:43:51.220Z,31.37
2023-02-15T09:46:59.939Z,31.36
2023-02-15T09:49:51.726Z,31.38
2023-02-15T09:52:52.253Z,31.40
2023-02-15T09:55:25.978Z,31.46
2023-02-15T09:58:10.675Z,31.32
2023-02-15T10:00:56.319Z,31.33
2023-02-15T10:03:56.374Z,31.36
2023-02-15T10:06:43.941Z,31.34
2023-02-15T10:09:25.302Z,31.34
2023-02-15T10:12:36.598Z,31.30
2023-02-15T10:15:44.910Z,31.25
2023-02-15T10:18:45.824Z,31.23
2023-02-15T10:21:31.793Z,31.19
2023-02-15T10:24:40.548Z,31.11
2023-02-15T10:27:26.349Z,31.07
2023-02-15T10:30:14.424Z,31.01
2023-02-15T10:33:03.043Z,30.95
2023-02-15T10:35:40.735Z,30.96
2023-02-15T10:38:48.723Z,31.05
2023-02-15T10:41:41.373Z,31.05
2023-02-15T10:44:26.956Z,31.01
2023-02-15T10:47:13.049Z,31.00
2023-02-15T10:50:18.943Z,30.95
2023-02-15T10:53:12.772Z,30.92
2023-02-15T10:56:01.622Z,30.91
2023-02-15T10:58:43.616Z,30.90
2023-02-15T11:01:21.814Z,30.89
2023-02-15T11:04:31.196Z,30.90
2023-02-15T11:07:07.035Z,30.87
2023-02-15T11:09:44.934Z,30.85
2023-02-15T11:12:27.315Z,30.87
2023-02-15T11:15:18.297Z,30.84
2023-02-15T11:17:59.404Z,30.84
2023-02-15T11:20:46.738Z,30.84
2023-02-15T11:23:20.253Z,30.81
2023-02-15T11:26:07.422Z,30.81
2023-02-15T11:28:52.850Z,30.72
2023-02-15T11:31:26.353Z,30.71
2023-02-15T11:34:02.635Z,30.68
2023-02-15T11:36:41.005Z,30.71
2023-02-15T11:39:20.752Z,30.72
2023-02-15T11:41:55.916Z,30.75
2023-02-15T11:44:39.882Z,30.74
2023-02-15T11:47:14.948Z,30.75
2023-02-15T11:49:49.853Z,30.74
2023-02-15T11:52:21.566Z,30.71
2023-02-15T11:54:54.266Z,30.66
2023-02-15T11:57:40.180Z,30.67
2023-02-15T12:00:21.025Z,30.64
2023-02-15T12:02:56.019Z,30.64
2023-02-15T12:05:28.170Z,30.62
2023-02-15T12:08:12.074Z,30.63
2023-02-15T12:11:04.123Z,30.60
2023-02-15T12:13:35.358Z,30.67
2023-02-15T12:16:12.776Z,30.60
2023-02-15T12:18:48.818Z,30.71
2023-02-15T12:21:41.802Z,30.78
2023-02-15T12:24:21.558Z,30.74
2023-02-15T12:27:26.296Z,30.78
2023-02-15T12:30:04.269Z,30.73
2023-02-15T12:32:38.087Z,30.74
2023-02-15T12:35:17.150Z,30.68
2023-02-15T12:38:03.904Z,30.68
2023-02-15T12:40:37.478Z,30.72
2023-02-15T12:43:11.366Z,30.73
2023-02-15T12:45:50.952Z,30.75
2023-02-15T12:48:24.137Z,30.72
2023-02-15T12:50:57.333Z,30.66
2023-02-15T12:53:36.600Z,30.70
2023-02-15T12:56:13.227Z,30.71
2023-02-15T12:58:44.712Z,30.72
2023-02-15T13:01:20.995Z,30.73
2023-02-15T13:03:57.696Z,30.70
2023-02-15T13:06:30.815Z,30.70
2023-02-15T13:09:18.942Z,30.72
2023-02-15T13:11:49.987Z,30.72
2023-02-15T13:14:30.865Z,30.68
2023-02-15T13:17:03.633Z,30.65
2023-02-15T13:19:39.002Z,30.66
2023-02-15T13:22:16.714Z,30.66
2023-02-15T13:24:56.015Z,30.64
2023-02-15T13:27:37.898Z,30.66
2023-02-15T13:30:23.353Z,30.65
2023-02-15T13:33:09.774Z,30.61
2023-02-15T13:35:47.614Z,30.57
2023-02-15T13:38:20.784Z,30.58
2023-02-15T13:40:54.526Z,30.52
2023-02-15T13:43:37.767Z,30.54
2023-02-15T13:46:24.250Z,30.58
2023-02-15T13:49:24.558Z,30.52
2023-02-15T13:52:07.959Z,30.49
2023-02-15T13:54:45.067Z,30.48
2023-02-15T13:57:41.696Z,30.49
2023-02-15T14:00:25.549Z,30.40
2023-02-15T14:03:02.192Z,30.37
2023-02-15T14:06:07.857Z,30.38
2023-02-15T14:09:02.748Z,30.35
2023-02-15T14:11:47.318Z,30.35
2023-02-15T14:14:36.344Z,30.29
2023-02-15T14:17:13.719Z,30.26
2023-02-15T14:20:04.600Z,30.27
2023-02-15T14:22:43.402Z,30.26
2023-02-15T14:25:43.921Z,30.25
2023-02-15T14:28:19.627Z,30.19
2023-02-15T14:30:52.785Z,30.20
2023-02-15T14:33:34.680Z,30.20
2023-02-15T14:36:08.897Z,30.15
2023-02-15T14:38:54.355Z,30.15
2023-02-15T14:41:32.004Z,30.14
2023-02-15T14:44:32.955Z,30.15
2023-02-15T14:47:21.341Z,30.12
2023-02-15T14:49:52.907Z,30.09
2023-02-15T14:52:23.908Z,30.05
2023-02-15T14:55:01.289Z,30.04
2023-02-15T14:57:36.023Z,30.00
2023-02-15T15:00:34.744Z,30.07
2023-02-15T15:03:22.217Z,30.01
2023-02-15T15:06:00.640Z,29.97
2023-02-15T15:08:39.724Z,29.97
2023-02-15T15:11:44.905Z,30.01
2023-02-15T15:14:36.953Z,29.97
2023-02-15T15:17:09.095Z,29.88
2023-02-15T15:19:52.755Z,29.90
2023-02-15T15:22:26.025Z,29.86
2023-02-15T15:25:34.099Z,29.85
2023-02-15T15:28:07.801Z,29.85
2023-02-15T15:30:38.537Z,29.86
2023-02-15T15:33:21.793Z,29.84
2023-02-15T15:36:08.670Z,29.85
2023-02-15T15:39:16.328Z,29.85
2023-02-15T15:42:14.643Z,29.83
2023-02-15T15:45:00.108Z,29.82
2023-02-15T15:47:53.468Z,29.80
2023-02-15T15:50:29.483Z,29.79
2023-02-15T15:53:01.550Z,29.78
2023-02-15T15:55:34.171Z,29.76
2023-02-15T15:58:09.550Z,29.79
2023-02-15T16:00:58.837Z,29.74
2023-02-15T16:03:32.196Z,29.73
2023-02-15T16:06:03.229Z,29.73
2023-02-15T16:08:43.192Z,29.72
2023-02-15T16:11:18.209Z,29.71
2023-02-15T16:13:50.230Z,29.67
2023-02-15T16:16:27.387Z,29.68
2023-02-15T16:19:07.511Z,29.65
2023-02-15T16:21:39.311Z,29.59
2023-02-15T16:24:42.144Z,29.62
2023-02-15T16:27:27.638Z,29.56
2023-02-15T16:29:58.465Z,29.59
2023-02-15T16:32:30.416Z,29.56
2023-02-15T16:35:03.989Z,29.57
2023-02-15T16:37:36.542Z,29.55
2023-02-15T16:40:07.703Z,29.49
2023-02-15T16:42:38.447Z,29.44
2023-02-15T16:45:16.345Z,29.42
2023-02-15T16:47:49.596Z,29.37
2023-02-15T16:50:23.331Z,29.35
2023-02-15T16:52:54.842Z,29.30
2023-02-15T16:55:43.155Z,29.30
2023-02-15T16:58:18.701Z,29.30
2023-02-15T17:00:49.429Z,29.29
2023-02-15T17:03:20.274Z,29.25
2023-02-15T17:05:53.394Z,29.25
2023-02-15T17:08:33.253Z,29.25
2023-02-15T17:11:19.661Z,29.25
2023-02-15T17:14:23.044Z,29.24
2023-02-15T17:16:58.234Z,29.18
2023-02-15T17:19:34.785Z,29.15
2023-02-15T17:22:09.342Z,29.15
2023-02-15T17:24:44.916Z,29.10
2023-02-15T17:27:23.119Z,29.11
2023-02-15T17:29:59.102Z,29.11
2023-02-15T17:32:33.484Z,29.10
2023-02-15T17:35:12.921Z,29.09
2023-02-15T17:37:48.253Z,29.06
2023-02-15T17:40:28.053Z,29.08
2023-02-15T17:42:58.840Z,29.07
2023-02-15T17:45:39.076Z,29.06
2023-02-15T17:48:17.626Z,29.05
2023-02-15T17:50:48.816Z,29.02
2023-02-15T17:53:20.587Z,29.01
2023-02-15T17:55:51.838Z,28.99
2023-02-15T17:58:25.642Z,28.99
2023-02-15T18:01:18.289Z,28.97
2023-02-15T18:04:09.524Z,28.96
2023-02-15T18:07:01.219Z,28.95
2023-02-15T18:09:49.944Z,28.94
2023-02-15T18:12:31.155Z,28.96
2023-02-15T18:15:02.857Z,28.96
2023-02-15T18:17:44.143Z,28.96
2023-02-15T18:20:21.798Z,28.96
2023-02-15T18:22:55.630Z,28.91
2023-02-15T18:25:26.960Z,28.89
2023-02-15T18:27:57.908Z,28.89
2023-02-15T18:30:29.192Z,28.89
2023-02-15T18:33:00.597Z,28.89
2023-02-15T18:35:33.300Z,28.89
2023-02-15T18:38:06.669Z,28.87
2023-02-15T18:40:37.370Z,28.87
2023-02-15T18:43:07.634Z,28.86
2023-02-15T18:45:39.622Z,28.86
2023-02-15T18:48:10.965Z,28.84
2023-02-15T18:50:41.633Z,28.86
2023-02-15T18:53:29.639Z,28.89
2023-02-15T18:56:00.865Z,28.80
2023-02-15T18:58:31.965Z,28.80
2023-02-15T19:01:02.651Z,28.79
2023-02-15T19:03:33.805Z,28.80
2023-02-15T19:06:08.173Z,28.76
2023-02-15T19:08:38.896Z,28.78
2023-02-15T19:11:18.101Z,28.77
2023-02-15T19:13:50.033Z,28.77
2023-02-15T19:16:34.520Z,28.78
2023-02-15T19:19:07.260Z,28.74
2023-02-15T19:21:38.200Z,28.74
2023-02-15T19:24:12.841Z,28.73
2023-02-15T19:26:45.916Z,28.70
2023-02-15T19:29:28.980Z,28.69
2023-02-15T19:32:00.076Z,28.66
2023-02-15T19:34:31.151Z,28.68
2023-02-15T19:37:02.086Z,28.65
2023-02-15T19:39:39.564Z,28.62
2023-02-15T19:42:23.270Z,28.62
2023-02-15T19:44:55.384Z,28.56
2023-02-15T19:47:30.196Z,28.58
2023-02-15T19:50:06.764Z,28.55
2023-02-15T19:52:37.802Z,28.54
2023-02-15T19:55:08.405Z,28.53
2023-02-15T19:57:39.032Z,28.52
2023-02-15T20:00:22.454Z,28.53
2023-02-15T20:02:54.946Z,28.50
2023-02-15T20:05:26.258Z,28.50
2023-02-15T20:07:57.005Z,28.48
2023-02-15T20:10:33.820Z,28.47
2023-02-15T20:13:04.736Z,28.48
2023-02-15T20:15:36.796Z,28.44
2023-02-15T20:18:07.839Z,28.46
2023-02-15T20:20:46.142Z,28.46
2023-02-15T20:23:24.284Z,28.47
2023-02-15T20:25:55.541Z,28.48
2023-02-15T20:28:27.911Z,28.45
2023-02-15T20:30:58.801Z,28.47
2023-02-15T20:33:29.244Z,28.45
2023-02-15T20:36:02.339Z,28.45
2023-02-15T20:38:33.724Z,28.45
2023-02-15T20:41:22.701Z,28.43
2023-02-15T20:43:54.069Z,28.42
2023-02-15T20:46:25.066Z,28.40
2023-02-15T20:48:55.759Z,28.38
2023-02-15T20:51:26.395Z,28.38
2023-02-15T20:53:57.748Z,28.39
2023-02-15T20:56:28.172Z,28.37
2023-02-15T20:58:58.961Z,28.37
2023-02-15T21:01:29.823Z,28.34
2023-02-15T21:04:01.298Z,28.34
2023-02-15T21:06:31.781Z,28.33
2023-02-15T21:09:04.337Z,28.33
2023-02-15T21:11:34.669Z,28.34
2023-02-15T21:14:06.570Z,28.33
2023-02-15T21:16:37.199Z,28.29
2023-02-15T21:19:14.763Z,28.31
2023-02-15T21:21:49.869Z,28.28
2023-02-15T21:24:30.880Z,28.31
2023-02-15T21:27:12.871Z,28.31
2023-02-15T21:29:43.867Z,28.30
2023-02-15T21:32:14.529Z,28.28
2023-02-15T21:34:45.282Z,28.28
2023-02-15T21:37:42.505Z,28.31
2023-02-15T21:40:16.132Z,28.28
2023-02-15T21:43:05.955Z,28.26
2023-02-15T21:45:54.503Z,28.27
2023-02-15T21:48:25.116Z,28.25
2023-02-15T21:51:16.900Z,28.26
2023-02-15T21:53:48.516Z,28.27
2023-02-15T21:56:25.243Z,28.26
2023-02-15T21:58:55.929Z,28.27
2023-02-15T22:01:29.101Z,28.26
2023-02-15T22:04:00.802Z,28.24
2023-02-15T22:06:31.317Z,28.26
2023-02-15T22:09:01.933Z,28.25
2023-02-15T22:11:33.610Z,28.25
2023-02-15T22:14:03.910Z,28.23
2023-02-15T22:16:34.757Z,28.24
2023-02-15T22:19:05.897Z,28.26
2023-02-15T22:21:36.486Z,28.23
2023-02-15T22:24:07.293Z,28.20
2023-02-15T22:26:38.287Z,28.20
2023-02-15T22:29:08.580Z,28.22
2023-02-15T22:31:39.940Z,28.20
2023-02-15T22:34:32.485Z,28.22
2023-02-15T22:37:04.128Z,28.21
2023-02-15T22:39:34.999Z,28.22
2023-02-15T22:42:06.280Z,28.23
2023-02-15T22:44:37.107Z,28.21
2023-02-15T22:47:09.914Z,28.21
2023-02-15T22:49:41.027Z,28.21
2023-02-15T22:52:14.883Z,28.22
2023-02-15T22:54:45.488Z,28.23
2023-02-15T22:57:45.979Z,28.28
2023-02-15T23:00:25.639Z,28.23
2023-02-15T23:02:56.792Z,28.23
2023-02-15T23:05:31.675Z,28.23
2023-02-15T23:08:02.600Z,28.26
2023-02-15T23:10:33.634Z,28.27
2023-02-15T23:13:25.735Z,28.30
2023-02-15T23:16:00.041Z,28.29
2023-02-15T23:18:40.125Z,28.33
2023-02-15T23:21:19.181Z,28.28
2023-02-15T23:23:54.035Z,28.23
2023-02-15T23:26:28.739Z,28.24
2023-02-15T23:29:01.806Z,28.25
2023-02-15T23:31:35.254Z,28.27
2023-02-15T23:34:17.157Z,28.29
2023-02-15T23:36:47.909Z,28.29
2023-02-15T23:39:39.314Z,28.29
2023-02-15T23:42:14.546Z,28.28
2023-02-15T23:44:46.669Z,28.33
2023-02-15T23:47:54.836Z,28.39
2023-02-15T23:50:31.773Z,28.30
2023-02-15T23:53:02.274Z,28.37
2023-02-15T23:55:40.801Z,28.44
2023-02-15T23:58:19.336Z,28.39
